createdAt,value
2018-07-15T00:02:07.245Z,96.22
2018-07-15T00:04:38.306Z,97.47
2018-07-15T00:07:07.733Z,97.31
2018-07-15T00:09:38.090Z,97.90
2018-07-15T00:12:07.722Z,98.59
2018-07-15T00:14:36.840Z,98.57
2018-07-15T00:17:06.176Z,100.00
2018-07-15T00:19:37.016Z,100.00
2018-07-15T00:22:07.373Z,100.00
2018-07-15T00:24:37.670Z,100.00
2018-07-15T00:27:07.669Z,100.00
2018-07-15T00:29:38.361Z,100.00
2018-07-15T00:32:08.950Z,100.00
2018-07-15T00:34:38.188Z,100.00
2018-07-15T00:37:07.049Z,100.00
2018-07-15T00:39:37.236Z,100.00
2018-07-15T00:42:07.489Z,100.00
2018-07-15T00:44:37.556Z,100.00
2018-07-15T00:47:06.261Z,100.00
2018-07-15T00:49:37.868Z,100.00
2018-07-15T00:52:06.694Z,100.00
2018-07-15T00:54:37.442Z,100.00
2018-07-15T00:57:06.242Z,100.00
2018-07-15T00:59:35.904Z,100.00
2018-07-15T01:02:05.286Z,100.00
2018-07-15T01:04:34.117Z,100.00
2018-07-15T01:07:04.129Z,100.00
2018-07-15T01:09:33.605Z,100.00
2018-07-15T01:12:04.117Z,100.00
2018-07-15T01:14:33.106Z,100.00
2018-07-15T01:17:01.457Z,100.00
2018-07-15T01:19:29.782Z,100.00
2018-07-15T01:21:58.133Z,100.00
2018-07-15T01:24:26.461Z,100.00
2018-07-15T01:26:54.807Z,100.00
2018-07-15T01:29:23.151Z,100.00
2018-07-15T01:31:51.517Z,100.00
2018-07-15T01:34:19.846Z,100.00
2018-07-15T01:36:48.197Z,100.00
2018-07-15T01:39:16.516Z,100.00
2018-07-15T01:41:44.840Z,100.00
2018-07-15T01:44:13.177Z,100.00
2018-07-15T01:46:41.501Z,100.00
2018-07-15T01:49:09.819Z,100.00
2018-07-15T01:51:38.158Z,100.00
2018-07-15T01:54:07.420Z,100.00
2018-07-15T01:56:36.279Z,100.00
2018-07-15T01:59:06.208Z,100.00
2018-07-15T02:01:36.085Z,100.00
2018-07-15T02:04:05.362Z,100.00
2018-07-15T02:06:34.249Z,100.00
2018-07-15T02:09:03.431Z,100.00
2018-07-15T02:11:31.749Z,100.00
2018-07-15T02:14:00.087Z,100.00
2018-07-15T02:16:28.425Z,100.00
2018-07-15T02:18:56.749Z,100.00
2018-07-15T02:21:25.105Z,100.00
2018-07-15T02:23:53.428Z,100.00
2018-07-15T02:26:21.757Z,100.00
2018-07-15T02:28:50.080Z,100.00
2018-07-15T02:31:18.436Z,100.00
2018-07-15T02:33:46.767Z,100.00
2018-07-15T02:36:15.837Z,100.00
2018-07-15T02:38:44.168Z,100.00
2018-07-15T02:41:12.496Z,100.00
2018-07-15T02:43:40.832Z,100.00
2018-07-15T02:46:09.149Z,100.00
2018-07-15T02:48:38.597Z,100.00
2018-07-15T02:51:08.349Z,100.00
2018-07-15T02:53:37.701Z,100.00
2018-07-15T02:56:07.189Z,100.00
2018-07-15T02:58:36.988Z,100.00
2018-07-15T03:01:07.102Z,100.00
2018-07-15T03:03:36.330Z,100.00
2018-07-15T03:06:06.238Z,100.00
2018-07-15T03:08:36.278Z,100.00
2018-07-15T03:11:06.229Z,100.00
2018-07-15T03:13:37.149Z,100.00
2018-07-15T03:16:05.983Z,100.00
2018-07-15T03:18:36.357Z,100.00
2018-07-15T03:21:06.261Z,100.00
2018-07-15T03:23:36.189Z,100.00
2018-07-15T03:26:06.317Z,100.00
2018-07-15T03:28:37.366Z,100.00
2018-07-15T03:31:07.954Z,100.00
2018-07-15T03:33:38.350Z,100.00
2018-07-15T03:36:07.345Z,100.00
2018-07-15T03:38:37.324Z,100.00
2018-07-15T03:41:07.822Z,100.00
2018-07-15T03:43:37.437Z,100.00
2018-07-15T03:46:08.058Z,100.00
2018-07-15T03:48:37.389Z,100.00
2018-07-15T03:51:07.685Z,100.00
2018-07-15T03:53:36.017Z,100.00
2018-07-15T03:56:05.014Z,100.00
2018-07-15T03:58:33.802Z,100.00
2018-07-15T04:01:03.879Z,100.00
2018-07-15T04:03:32.205Z,100.00
2018-07-15T04:06:00.525Z,100.00
2018-07-15T04:08:29.187Z,100.00
2018-07-15T04:10:57.500Z,100.00
2018-07-15T04:13:25.825Z,100.00
2018-07-15T04:15:54.157Z,100.00
2018-07-15T04:18:22.484Z,100.00
2018-07-15T04:20:51.726Z,100.00
2018-07-15T04:23:20.053Z,100.00
2018-07-15T04:25:48.388Z,100.00
2018-07-15T04:28:16.747Z,100.00
2018-07-15T04:30:45.096Z,100.00
2018-07-15T04:33:13.450Z,100.00
2018-07-15T04:35:41.790Z,100.00
2018-07-15T04:38:10.122Z,100.00
2018-07-15T04:40:38.445Z,100.00
2018-07-15T04:43:07.902Z,100.00
2018-07-15T04:45:37.338Z,100.00
2018-07-15T04:48:07.053Z,100.00
2018-07-15T04:50:36.729Z,100.00
2018-07-15T04:53:07.184Z,100.00
2018-07-15T04:55:37.040Z,100.00
2018-07-15T04:58:06.041Z,100.00
2018-07-15T05:00:36.253Z,100.00
2018-07-15T05:03:06.725Z,100.00
2018-07-15T05:05:37.241Z,100.00
2018-07-15T05:08:07.154Z,100.00
2018-07-15T05:10:37.785Z,100.00
2018-07-15T05:13:07.035Z,100.00
2018-07-15T05:15:37.068Z,100.00
2018-07-15T05:18:06.724Z,100.00
2018-07-15T05:20:36.062Z,100.00
2018-07-15T05:23:05.497Z,100.00
2018-07-15T05:25:33.842Z,100.00
2018-07-15T05:28:02.212Z,97.22
2018-07-15T05:30:30.609Z,94.04
2018-07-15T05:32:58.972Z,95.56
2018-07-15T05:35:27.322Z,93.12
2018-07-15T05:37:56.680Z,90.48
2018-07-15T05:40:25.122Z,90.14
2018-07-15T05:42:53.524Z,90.51
2018-07-15T05:45:22.042Z,87.16
2018-07-15T05:47:50.471Z,87.10
2018-07-15T05:50:18.951Z,88.99
2018-07-15T05:52:47.393Z,83.45
2018-07-15T05:55:15.798Z,84.55
2018-07-15T05:57:45.229Z,85.62
2018-07-15T06:00:13.554Z,85.31
2018-07-15T06:02:41.932Z,83.82
2018-07-15T06:05:10.390Z,83.33
2018-07-15T06:07:38.829Z,84.18
2018-07-15T06:10:08.449Z,80.06
2018-07-15T06:12:37.057Z,81.38
2018-07-15T06:15:07.946Z,80.10
2018-07-15T06:17:37.418Z,76.03
2018-07-15T06:20:08.312Z,76.10
2018-07-15T06:22:37.726Z,74.80
2018-07-15T06:25:07.241Z,74.03
2018-07-15T06:27:37.622Z,73.94
2018-07-15T06:30:06.534Z,71.41
2018-07-15T06:32:36.193Z,78.37
2018-07-15T06:35:06.434Z,71.83
2018-07-15T06:37:36.249Z,71.90
2018-07-15T06:40:07.139Z,72.60
2018-07-15T06:42:37.222Z,72.40
2018-07-15T06:45:08.061Z,73.29
2018-07-15T06:47:37.189Z,73.18
2018-07-15T06:50:08.053Z,72.20
2018-07-15T06:52:36.431Z,71.91
2018-07-15T06:55:06.107Z,69.82
2018-07-15T06:57:35.473Z,72.28
2018-07-15T07:00:05.129Z,72.27
2018-07-15T07:02:35.316Z,71.74
2018-07-15T07:05:03.847Z,70.41
2018-07-15T07:07:32.235Z,68.16
2018-07-15T07:10:00.762Z,72.75
2018-07-15T07:12:29.105Z,71.54
2018-07-15T07:14:57.445Z,68.62
2018-07-15T07:17:25.786Z,68.36
2018-07-15T07:19:54.191Z,68.69
2018-07-15T07:22:22.529Z,68.21
2018-07-15T07:24:50.876Z,66.15
2018-07-15T07:27:19.205Z,66.23
2018-07-15T07:29:47.531Z,66.02
2018-07-15T07:32:15.897Z,65.70
2018-07-15T07:34:44.244Z,64.62
2018-07-15T07:37:12.585Z,64.01
2018-07-15T07:39:41.849Z,65.31
2018-07-15T07:42:10.173Z,65.08
2018-07-15T07:44:38.501Z,63.36
2018-07-15T07:47:07.756Z,64.18
2018-07-15T07:49:36.917Z,64.56
2018-07-15T07:52:06.349Z,64.80
2018-07-15T07:54:35.371Z,64.13
2018-07-15T07:57:03.885Z,61.65
2018-07-15T07:59:32.229Z,63.54
2018-07-15T08:02:01.109Z,62.02
2018-07-15T08:04:29.689Z,64.37
2018-07-15T08:06:58.018Z,63.88
2018-07-15T08:09:26.356Z,62.05
2018-07-15T08:11:54.700Z,62.60
2018-07-15T08:14:23.041Z,62.10
2018-07-15T08:16:51.399Z,62.69
2018-07-15T08:19:20.950Z,61.89
2018-07-15T08:21:49.399Z,61.05
2018-07-15T08:24:18.005Z,63.72
2018-07-15T08:26:46.701Z,60.79
2018-07-15T08:29:15.025Z,59.23
2018-07-15T08:31:43.383Z,59.77
2018-07-15T08:34:11.821Z,60.66
2018-07-15T08:36:40.175Z,61.18
2018-07-15T08:39:08.553Z,59.69
2018-07-15T08:41:37.945Z,58.83
2018-07-15T08:44:07.361Z,59.89
2018-07-15T08:46:36.471Z,57.84
2018-07-15T08:49:05.584Z,59.09
2018-07-15T08:51:36.445Z,56.79
2018-07-15T08:54:05.621Z,56.17
2018-07-15T08:56:35.644Z,58.50
2018-07-15T08:59:05.493Z,57.88
2018-07-15T09:01:35.565Z,56.96
2018-07-15T09:04:07.051Z,55.49
2018-07-15T09:06:36.556Z,55.15
2018-07-15T09:09:07.311Z,55.47
2018-07-15T09:11:38.123Z,55.16
2018-07-15T09:14:07.556Z,54.15
2018-07-15T09:16:36.516Z,53.16
2018-07-15T09:19:05.575Z,56.01
2018-07-15T09:21:35.531Z,52.15
2018-07-15T09:24:06.601Z,54.60
2018-07-15T09:26:35.666Z,54.74
2018-07-15T09:29:05.588Z,54.41
2018-07-15T09:31:34.979Z,52.80
2018-07-15T09:34:04.693Z,53.90
2018-07-15T09:36:34.979Z,54.25
2018-07-15T09:39:06.536Z,51.92
2018-07-15T09:41:37.353Z,52.54
2018-07-15T09:44:07.918Z,53.48
2018-07-15T09:46:36.912Z,52.04
2018-07-15T09:49:06.902Z,51.15
2018-07-15T09:51:37.245Z,52.73
2018-07-15T09:54:07.594Z,50.25
2018-07-15T09:56:37.463Z,48.34
2018-07-15T09:59:06.711Z,49.79
2018-07-15T10:01:37.498Z,49.40
2018-07-15T10:04:06.079Z,50.96
2018-07-15T10:06:36.745Z,49.43
2018-07-15T10:09:07.350Z,49.56
2018-07-15T10:11:37.069Z,47.86
2018-07-15T10:14:06.694Z,48.97
2018-07-15T10:16:37.561Z,49.93
2018-07-15T10:19:07.432Z,49.57
2018-07-15T10:21:37.221Z,48.93
2018-07-15T10:24:07.820Z,48.01
2018-07-15T10:26:37.504Z,48.21
2018-07-15T10:29:06.705Z,48.90
2018-07-15T10:31:37.624Z,49.36
2018-07-15T10:34:06.515Z,47.06
2018-07-15T10:36:36.399Z,47.06
2018-07-15T10:39:05.670Z,47.95
2018-07-15T10:41:35.272Z,46.83
2018-07-15T10:44:03.909Z,46.80
2018-07-15T10:46:32.385Z,45.62
2018-07-15T10:49:00.861Z,45.30
2018-07-15T10:51:29.194Z,45.91
2018-07-15T10:53:57.593Z,47.80
2018-07-15T10:56:25.931Z,48.95
2018-07-15T10:58:54.274Z,44.67
2018-07-15T11:01:22.893Z,46.22
2018-07-15T11:03:51.353Z,45.76
2018-07-15T11:06:19.709Z,47.74
2018-07-15T11:08:48.049Z,50.24
2018-07-15T11:11:16.557Z,45.63
2018-07-15T11:13:44.892Z,46.02
2018-07-15T11:16:14.197Z,48.04
2018-07-15T11:18:42.633Z,46.37
2018-07-15T11:21:10.973Z,47.57
2018-07-15T11:23:39.363Z,49.23
2018-07-15T11:26:08.880Z,44.63
2018-07-15T11:28:38.214Z,46.73
2018-07-15T11:31:09.394Z,46.30
2018-07-15T11:33:38.227Z,45.57
2018-07-15T11:36:07.453Z,46.44
2018-07-15T11:38:37.781Z,43.99
2018-07-15T11:41:07.017Z,42.73
2018-07-15T11:43:36.664Z,45.38
2018-07-15T11:46:06.687Z,44.41
2018-07-15T11:48:36.482Z,43.41
2018-07-15T11:51:06.439Z,43.26
2018-07-15T11:53:36.621Z,45.13
2018-07-15T11:56:06.638Z,43.26
2018-07-15T11:58:37.788Z,43.95
2018-07-15T12:01:10.072Z,43.67
2018-07-15T12:03:38.685Z,42.95
2018-07-15T12:06:08.096Z,44.16
2018-07-15T12:08:37.499Z,43.35
2018-07-15T12:11:06.693Z,43.66
2018-07-15T12:13:36.353Z,45.38
2018-07-15T12:16:07.035Z,43.58
2018-07-15T12:18:36.961Z,47.44
2018-07-15T12:21:07.550Z,45.54
2018-07-15T12:23:37.085Z,44.72
2018-07-15T12:26:07.270Z,42.55
2018-07-15T12:28:36.729Z,44.16
2018-07-15T12:31:06.753Z,43.49
2018-07-15T12:33:36.704Z,43.16
2018-07-15T12:36:07.189Z,42.51
2018-07-15T12:38:36.638Z,43.10
2018-07-15T12:41:06.609Z,41.22
2018-07-15T12:43:36.091Z,41.93
2018-07-15T12:46:06.014Z,42.08
2018-07-15T12:48:35.722Z,45.05
2018-07-15T12:51:04.425Z,43.07
2018-07-15T12:53:32.769Z,42.73
2018-07-15T12:56:01.114Z,43.30
2018-07-15T12:58:29.476Z,42.85
2018-07-15T13:00:57.850Z,42.26
2018-07-15T13:03:26.209Z,42.14
2018-07-15T13:05:55.021Z,42.27
2018-07-15T13:08:23.351Z,41.70
2018-07-15T13:10:51.729Z,41.79
2018-07-15T13:13:20.074Z,42.56
2018-07-15T13:15:48.427Z,41.06
2018-07-15T13:18:16.762Z,40.12
2018-07-15T13:20:45.107Z,40.16
2018-07-15T13:23:13.461Z,41.63
2018-07-15T13:25:41.814Z,40.96
2018-07-15T13:28:10.210Z,39.98
2018-07-15T13:30:38.571Z,41.85
2018-07-15T13:33:08.066Z,41.20
2018-07-15T13:35:37.046Z,40.79
2018-07-15T13:38:07.573Z,43.31
2018-07-15T13:40:36.493Z,41.60
2018-07-15T13:43:06.727Z,42.11
2018-07-15T13:45:36.709Z,41.12
2018-07-15T13:48:07.573Z,41.33
2018-07-15T13:50:36.729Z,42.35
2018-07-15T13:53:06.553Z,41.30
2018-07-15T13:55:36.915Z,44.23
2018-07-15T13:58:07.386Z,40.50
2018-07-15T14:00:36.194Z,40.90
2018-07-15T14:03:06.536Z,40.75
2018-07-15T14:05:36.032Z,42.00
2018-07-15T14:08:06.030Z,42.68
2018-07-15T14:10:35.638Z,41.65
2018-07-15T14:13:05.622Z,41.37
2018-07-15T14:15:35.687Z,40.38
2018-07-15T14:18:05.639Z,40.55
2018-07-15T14:20:35.693Z,39.69
2018-07-15T14:23:05.163Z,40.52
2018-07-15T14:25:35.703Z,39.11
2018-07-15T14:28:17.334Z,40.04
2018-07-15T14:30:51.630Z,38.87
2018-07-15T14:33:39.604Z,38.89
2018-07-15T14:36:18.979Z,39.42
2018-07-15T14:38:48.505Z,39.72
2018-07-15T14:41:16.929Z,40.27
2018-07-15T14:43:46.884Z,40.81
2018-07-15T14:46:16.552Z,39.65
2018-07-15T14:48:44.917Z,39.63
2018-07-15T14:51:13.283Z,36.66
2018-07-15T14:53:41.629Z,38.09
2018-07-15T14:56:10.057Z,37.02
2018-07-15T14:58:38.850Z,36.04
2018-07-15T15:01:53.215Z,33.86
2018-07-15T15:04:25.275Z,36.69
2018-07-15T15:06:56.029Z,35.88
2018-07-15T15:09:28.760Z,38.93
2018-07-15T15:14:53.972Z,33.01
2018-07-15T15:20:13.023Z,37.44
2018-07-15T15:25:56.598Z,32.33
2018-07-15T15:28:25.696Z,33.85
2018-07-15T15:30:54.939Z,33.10
2018-07-15T15:33:23.864Z,33.77
2018-07-15T15:35:52.792Z,32.37
2018-07-15T15:38:25.824Z,30.17
2018-07-15T15:41:09.859Z,30.86
2018-07-15T15:43:40.275Z,31.16
2018-07-15T15:46:10.587Z,31.77
2018-07-15T15:48:40.596Z,33.90
2018-07-15T15:51:16.479Z,32.05
2018-07-15T15:53:49.028Z,33.37
2018-07-15T15:56:24.661Z,36.96
2018-07-15T15:58:57.219Z,37.73
2018-07-15T16:01:27.434Z,37.75
2018-07-15T16:03:56.380Z,41.97
2018-07-15T16:06:27.182Z,41.70
2018-07-15T16:08:59.905Z,42.87
2018-07-15T16:11:36.974Z,41.98
2018-07-15T16:14:09.549Z,39.36
2018-07-15T16:16:55.265Z,42.24
2018-07-15T16:19:26.016Z,45.32
2018-07-15T16:21:56.553Z,41.33
2018-07-15T16:24:40.545Z,43.37
2018-07-15T16:27:11.717Z,43.18
2018-07-15T16:29:55.024Z,43.69
2018-07-15T16:32:39.245Z,44.74
2018-07-15T16:35:11.891Z,47.94
2018-07-15T16:37:41.987Z,49.71
2018-07-15T16:40:11.889Z,50.40
2018-07-15T16:42:45.840Z,49.84
2018-07-15T16:45:15.558Z,47.72
2018-07-15T16:47:50.924Z,49.59
2018-07-15T16:50:24.950Z,50.64
2018-07-15T16:52:56.225Z,47.98
2018-07-15T16:55:34.117Z,46.83
2018-07-15T16:58:37.093Z,46.78
2018-07-15T17:01:06.793Z,48.94
2018-07-15T17:03:36.347Z,52.81
2018-07-15T17:06:11.520Z,44.86
2018-07-15T17:11:37.140Z,50.51
2018-07-15T17:14:14.380Z,49.97
2018-07-15T17:16:44.195Z,55.05
2018-07-15T17:19:13.049Z,46.66
2018-07-15T17:21:42.100Z,50.15
2018-07-15T17:24:12.118Z,51.95
2018-07-15T17:26:42.383Z,50.20
2018-07-15T17:29:12.034Z,51.01
2018-07-15T17:31:41.416Z,52.95
2018-07-15T17:34:12.467Z,51.85
2018-07-15T17:36:42.587Z,54.62
2018-07-15T17:39:18.140Z,49.60
2018-07-15T17:41:50.329Z,51.65
2018-07-15T17:44:20.995Z,53.71
2018-07-15T17:49:34.669Z,49.24
2018-07-15T17:52:24.552Z,51.95
2018-07-15T17:54:59.770Z,54.81
2018-07-15T17:57:41.744Z,56.57
2018-07-15T18:00:11.583Z,49.05
2018-07-15T18:02:42.179Z,49.89
2018-07-15T18:05:11.974Z,50.07
2018-07-15T18:07:42.275Z,56.52
2018-07-15T18:10:39.871Z,57.00
2018-07-15T18:13:11.743Z,53.40
2018-07-15T18:18:45.111Z,59.81
2018-07-15T18:21:13.965Z,59.60
2018-07-15T18:23:42.884Z,58.46
2018-07-15T18:26:11.691Z,57.57
2018-07-15T18:28:47.032Z,57.87
2018-07-15T18:31:16.156Z,57.75
2018-07-15T18:33:57.829Z,58.50
2018-07-15T18:36:27.245Z,59.12
2018-07-15T18:38:58.782Z,59.60
2018-07-15T18:41:30.581Z,60.78
2018-07-15T18:44:02.553Z,59.84
2018-07-15T18:46:56.854Z,60.40
2018-07-15T18:49:26.665Z,61.31
2018-07-15T18:51:55.939Z,61.12
2018-07-15T18:54:25.474Z,60.81
2018-07-15T18:59:41.849Z,61.40
2018-07-15T19:05:39.123Z,61.12
2018-07-15T19:59:30.076Z,72.77
2018-07-15T20:01:58.819Z,74.22
2018-07-15T20:04:27.702Z,73.37
2018-07-15T20:06:56.350Z,75.46
2018-07-15T20:09:25.173Z,76.01
2018-07-15T20:11:53.926Z,75.39
2018-07-15T20:14:22.684Z,75.81
2018-07-15T20:16:51.449Z,77.48
2018-07-15T20:19:20.180Z,74.39
2018-07-15T20:21:48.901Z,77.04
2018-07-15T20:24:17.809Z,74.98
2018-07-15T20:26:46.638Z,75.85
2018-07-15T20:29:16.112Z,77.19
2018-07-15T20:31:45.834Z,79.16
2018-07-15T20:34:15.633Z,79.20
2018-07-15T20:36:44.240Z,78.06
2018-07-15T20:39:13.636Z,78.42
2018-07-15T20:41:42.295Z,79.12
2018-07-15T20:44:10.734Z,79.37
2018-07-15T20:46:39.307Z,79.29
2018-07-15T20:49:08.995Z,79.61
2018-07-15T20:51:38.014Z,81.74
2018-07-15T20:54:06.950Z,79.67
2018-07-15T20:56:36.268Z,79.40
2018-07-15T20:59:04.604Z,79.59
2018-07-15T21:01:32.932Z,81.07
2018-07-15T21:04:05.073Z,80.09
2018-07-15T21:06:34.978Z,83.52
2018-07-15T21:09:03.704Z,83.87
2018-07-15T21:11:33.070Z,81.89
2018-07-15T21:14:01.405Z,81.42
2018-07-15T21:16:29.777Z,80.77
2018-07-15T21:18:58.610Z,81.28
2018-07-15T21:21:26.949Z,82.33
2018-07-15T21:23:55.285Z,82.11
2018-07-15T21:26:23.633Z,84.80
2018-07-15T21:28:51.976Z,84.56
2018-07-15T21:31:20.322Z,82.52
2018-07-15T21:33:48.672Z,82.42
2018-07-15T21:36:17.022Z,83.30
2018-07-15T21:38:46.865Z,82.83
2018-07-15T21:41:15.853Z,83.27
2018-07-15T21:43:44.211Z,83.00
2018-07-15T21:46:12.541Z,84.84
2018-07-15T21:48:40.877Z,85.52
2018-07-15T21:51:09.228Z,84.54
2018-07-15T21:53:38.635Z,85.72
2018-07-15T21:56:07.478Z,85.86
2018-07-15T21:58:36.569Z,84.76
2018-07-15T22:01:04.914Z,85.03
2018-07-15T22:03:33.257Z,85.75
2018-07-15T22:06:01.587Z,86.80
2018-07-15T22:08:41.323Z,86.54
2018-07-15T22:11:09.694Z,86.45
2018-07-15T22:13:39.158Z,86.32
2018-07-15T22:16:08.858Z,86.10
2018-07-15T22:18:38.204Z,87.43
2018-07-15T22:21:07.134Z,86.08
2018-07-15T22:23:35.555Z,86.90
2018-07-15T22:26:03.885Z,85.63
2018-07-15T22:28:32.217Z,87.45
2018-07-15T22:31:00.587Z,85.39
2018-07-15T22:33:28.936Z,86.10
2018-07-15T22:35:57.265Z,85.81
2018-07-15T22:38:25.598Z,87.66
2018-07-15T22:40:54.015Z,87.56
2018-07-15T22:43:22.339Z,87.66
2018-07-15T22:45:50.674Z,87.42
2018-07-15T22:48:19.005Z,87.95
2018-07-15T22:50:47.333Z,87.42
2018-07-15T22:53:16.633Z,88.14
2018-07-15T22:55:45.617Z,89.89
2018-07-15T22:58:14.669Z,90.50
2018-07-15T23:00:43.586Z,89.54
2018-07-15T23:03:11.909Z,90.14
2018-07-15T23:05:52.438Z,90.84
2018-07-15T23:08:21.169Z,90.95
2018-07-15T23:10:49.497Z,91.79
2018-07-15T23:13:18.249Z,91.97
2018-07-15T23:15:46.771Z,92.29
2018-07-15T23:18:16.110Z,92.01
2018-07-15T23:20:45.249Z,92.45
2018-07-15T23:23:14.921Z,92.21
2018-07-15T23:25:43.254Z,92.09
2018-07-15T23:28:12.626Z,92.74
2018-07-15T23:30:41.645Z,92.71
2018-07-15T23:33:10.366Z,93.62
2018-07-15T23:35:38.761Z,93.08
2018-07-15T23:38:07.856Z,93.78
2018-07-15T23:40:37.683Z,94.98
2018-07-15T23:43:06.185Z,94.13
2018-07-15T23:45:36.305Z,93.60
2018-07-15T23:48:04.666Z,93.92
2018-07-15T23:50:33.006Z,93.66
2018-07-15T23:53:01.345Z,93.39
2018-07-15T23:55:29.741Z,94.19
2018-07-15T23:57:58.107Z,94.67
